createdAt,value
2018-12-21T00:01:27.500Z,14.30
2018-12-21T00:03:58.630Z,14.30
2018-12-21T00:06:29.831Z,14.30
2018-12-21T00:09:00.925Z,14.30
2018-12-21T00:11:32.975Z,14.30
2018-12-21T00:14:04.383Z,14.30
2018-12-21T00:16:35.466Z,14.30
2018-12-21T00:19:06.608Z,14.30
2018-12-21T00:21:37.808Z,14.30
2018-12-21T00:24:08.903Z,14.30
2018-12-21T00:26:39.989Z,14.40
2018-12-21T00:29:10.984Z,14.40
2018-12-21T00:31:47.352Z,14.40
2018-12-21T00:34:23.669Z,14.40
2018-12-21T00:37:00.035Z,14.30
2018-12-21T00:39:36.677Z,14.30
2018-12-21T00:42:09.793Z,14.30
2018-12-21T00:44:40.776Z,14.30
2018-12-21T00:47:14.628Z,14.30
2018-12-21T00:49:45.737Z,14.30
2018-12-21T00:52:16.812Z,14.30
2018-12-21T00:54:47.904Z,14.30
2018-12-21T00:57:18.985Z,14.30
2018-12-21T00:59:50.820Z,14.30
2018-12-21T01:02:21.883Z,14.30
2018-12-21T01:04:52.968Z,14.30
2018-12-21T01:07:24.128Z,14.30
2018-12-21T01:09:55.216Z,14.30
2018-12-21T01:12:26.368Z,14.30
2018-12-21T01:14:57.468Z,14.30
2018-12-21T01:17:28.477Z,14.30
2018-12-21T01:19:59.616Z,14.30
2018-12-21T01:22:30.792Z,14.30
2018-12-21T01:25:01.889Z,14.30
2018-12-21T01:27:33.056Z,14.30
2018-12-21T01:30:04.238Z,14.30
2018-12-21T01:32:35.684Z,14.30
2018-12-21T01:35:06.776Z,14.30
2018-12-21T01:37:37.741Z,14.30
2018-12-21T01:40:09.300Z,14.30
2018-12-21T01:42:40.416Z,14.40
2018-12-21T01:45:11.516Z,14.40
2018-12-21T01:47:42.587Z,14.40
2018-12-21T01:50:13.685Z,14.40
2018-12-21T01:52:44.766Z,14.40
2018-12-21T01:55:15.864Z,14.40
2018-12-21T01:57:46.952Z,14.40
2018-12-21T02:00:18.037Z,14.40
2018-12-21T02:02:49.389Z,14.40
2018-12-21T02:05:20.584Z,14.40
2018-12-21T02:07:51.705Z,14.30
2018-12-21T02:10:22.875Z,14.30
2018-12-21T02:12:53.960Z,14.40
2018-12-21T02:15:25.056Z,14.40
2018-12-21T02:17:56.143Z,14.40
2018-12-21T02:20:27.335Z,14.40
2018-12-21T02:22:58.479Z,14.30
2018-12-21T02:25:29.463Z,14.30
2018-12-21T02:28:00.535Z,14.30
2018-12-21T02:30:31.635Z,14.40
2018-12-21T02:33:02.708Z,14.40
2018-12-21T02:35:33.831Z,14.40
2018-12-21T02:38:04.896Z,14.30
2018-12-21T02:40:36.005Z,14.40
2018-12-21T02:43:07.169Z,14.40
2018-12-21T02:45:38.285Z,14.40
2018-12-21T02:48:09.355Z,14.40
2018-12-21T02:50:40.460Z,14.40
2018-12-21T02:53:11.537Z,14.30
2018-12-21T02:55:42.657Z,14.30
2018-12-21T02:58:13.617Z,14.30
2018-12-21T03:00:44.608Z,14.30
2018-12-21T03:03:15.687Z,14.30
2018-12-21T03:05:46.783Z,14.30
2018-12-21T03:08:17.853Z,14.30
2018-12-21T03:10:48.944Z,14.30
2018-12-21T03:13:20.024Z,14.30
2018-12-21T03:15:51.108Z,14.30
2018-12-21T03:18:22.205Z,14.30
2018-12-21T03:20:53.304Z,14.30
2018-12-21T03:23:24.391Z,14.30
2018-12-21T03:25:55.508Z,14.30
2018-12-21T03:28:26.603Z,14.30
2018-12-21T03:30:57.784Z,14.30
2018-12-21T03:33:28.847Z,14.40
2018-12-21T03:35:59.945Z,14.30
2018-12-21T03:38:31.031Z,14.40
2018-12-21T03:41:02.153Z,14.40
2018-12-21T03:43:33.222Z,14.40
2018-12-21T03:46:04.316Z,14.40
2018-12-21T03:48:35.396Z,14.40
2018-12-21T03:51:06.497Z,14.40
2018-12-21T03:53:37.555Z,14.40
2018-12-21T03:56:08.684Z,14.50
2018-12-21T03:58:39.923Z,14.40
2018-12-21T04:01:11.024Z,14.50
2018-12-21T04:03:42.103Z,14.50
2018-12-21T04:06:13.190Z,14.50
2018-12-21T04:08:44.275Z,14.50
2018-12-21T04:11:15.398Z,14.50
2018-12-21T04:13:46.470Z,14.50
2018-12-21T04:16:17.573Z,14.60
2018-12-21T04:18:48.665Z,14.60
2018-12-21T04:21:19.756Z,14.60
2018-12-21T04:23:50.848Z,14.60
2018-12-21T04:26:22.016Z,14.60
2018-12-21T04:28:53.072Z,14.60
2018-12-21T04:31:24.178Z,14.60
2018-12-21T04:33:55.355Z,14.70
2018-12-21T04:36:26.454Z,14.70
2018-12-21T04:38:57.568Z,14.70
2018-12-21T04:41:28.656Z,14.70
2018-12-21T04:43:59.733Z,14.70
2018-12-21T04:46:30.905Z,14.70
2018-12-21T04:49:02.085Z,14.80
2018-12-21T04:51:33.169Z,14.80
2018-12-21T04:54:04.252Z,14.80
2018-12-21T04:56:35.359Z,14.80
2018-12-21T04:59:06.442Z,14.80
2018-12-21T05:01:37.568Z,14.80
2018-12-21T05:04:08.705Z,14.80
2018-12-21T05:06:39.692Z,14.80
2018-12-21T05:09:10.643Z,14.90
2018-12-21T05:11:41.628Z,14.90
2018-12-21T05:14:12.699Z,14.90
2018-12-21T05:16:43.835Z,14.90
2018-12-21T05:19:14.916Z,14.90
2018-12-21T05:21:46.107Z,14.90
2018-12-21T05:24:17.471Z,14.90
2018-12-21T05:26:48.591Z,14.90
2018-12-21T05:29:20.627Z,14.90
2018-12-21T05:31:51.756Z,14.90
2018-12-21T05:34:22.879Z,14.90
2018-12-21T05:36:53.988Z,14.90
2018-12-21T05:39:25.088Z,14.90
2018-12-21T05:41:56.199Z,14.90
2018-12-21T05:44:27.271Z,14.90
2018-12-21T05:46:58.412Z,14.90
2018-12-21T05:49:36.027Z,14.90
2018-12-21T05:52:07.130Z,14.90
2018-12-21T05:54:38.196Z,14.90
2018-12-21T05:57:09.304Z,14.90
2018-12-21T05:59:40.407Z,14.90
2018-12-21T06:02:11.520Z,14.90
2018-12-21T06:04:42.588Z,14.90
2018-12-21T06:07:13.688Z,14.90
2018-12-21T06:09:44.765Z,14.80
2018-12-21T06:12:15.864Z,14.80
2018-12-21T06:14:46.940Z,14.90
2018-12-21T06:17:18.046Z,14.80
2018-12-21T06:19:49.173Z,14.90
2018-12-21T06:22:20.169Z,14.90
2018-12-21T06:24:51.258Z,14.90
2018-12-21T06:27:22.388Z,14.90
2018-12-21T06:29:53.760Z,14.90
2018-12-21T06:32:24.884Z,14.90
2018-12-21T06:34:55.872Z,14.90
2018-12-21T06:37:26.975Z,14.90
2018-12-21T06:39:58.056Z,14.90
2018-12-21T06:42:29.164Z,14.90
2018-12-21T06:45:00.261Z,14.90
2018-12-21T06:47:31.386Z,14.90
2018-12-21T06:50:02.462Z,14.80
2018-12-21T06:52:33.558Z,14.80
2018-12-21T06:55:04.695Z,14.80
2018-12-21T06:57:35.796Z,14.80
2018-12-21T07:00:10.233Z,14.80
2018-12-21T07:02:41.336Z,14.80
2018-12-21T07:05:12.420Z,14.80
2018-12-21T07:07:43.523Z,14.80
2018-12-21T07:10:14.600Z,14.80
2018-12-21T07:12:46.822Z,14.80
2018-12-21T07:15:18.288Z,14.80
2018-12-21T07:17:49.476Z,14.80
2018-12-21T07:20:20.460Z,14.80
2018-12-21T07:22:51.570Z,14.80
2018-12-21T07:25:22.668Z,14.80
2018-12-21T07:27:53.779Z,14.80
2018-12-21T07:30:24.725Z,14.80
2018-12-21T07:32:55.852Z,14.80
2018-12-21T07:35:26.815Z,14.80
2018-12-21T07:37:57.914Z,14.80
2018-12-21T07:40:28.976Z,14.80
2018-12-21T07:43:00.068Z,14.80
2018-12-21T07:45:31.152Z,14.80
2018-12-21T07:48:02.267Z,14.80
2018-12-21T07:50:33.355Z,14.70
2018-12-21T07:53:04.434Z,14.70
2018-12-21T07:55:35.542Z,14.70
2018-12-21T07:58:06.606Z,14.70
2018-12-21T08:00:37.696Z,14.70
2018-12-21T08:03:10.095Z,14.70
2018-12-21T08:05:41.193Z,14.70
2018-12-21T08:08:12.326Z,14.60
2018-12-21T08:10:43.424Z,14.60
2018-12-21T08:13:14.395Z,14.60
2018-12-21T08:15:45.481Z,14.60
2018-12-21T08:18:16.572Z,14.60
2018-12-21T08:20:47.679Z,14.60
2018-12-21T08:23:18.650Z,14.60
2018-12-21T08:25:49.630Z,14.60
2018-12-21T08:28:20.707Z,14.50
2018-12-21T08:30:51.877Z,14.50
2018-12-21T08:33:22.878Z,14.50
2018-12-21T08:35:54.749Z,14.50
2018-12-21T08:38:25.948Z,14.50
2018-12-21T08:40:58.582Z,14.50
2018-12-21T08:43:29.548Z,14.50
2018-12-21T08:46:00.643Z,14.50
2018-12-21T08:48:31.732Z,14.60
2018-12-21T08:51:02.840Z,14.50
2018-12-21T08:53:33.912Z,14.50
2018-12-21T08:56:05.013Z,14.50
2018-12-21T08:58:36.091Z,14.50
2018-12-21T09:01:07.206Z,14.50
2018-12-21T09:03:38.820Z,14.60
2018-12-21T09:06:18.287Z,14.60
2018-12-21T09:08:42.936Z,14.60
2018-12-21T09:11:14.216Z,14.60
2018-12-21T09:13:45.358Z,14.60
2018-12-21T09:16:16.400Z,14.60
2018-12-21T09:18:47.499Z,14.60
2018-12-21T09:21:18.685Z,14.60
2018-12-21T09:23:49.910Z,14.60
2018-12-21T09:41:33.546Z,14.60
2018-12-21T09:44:05.188Z,14.50
2018-12-21T09:46:37.232Z,14.50
2018-12-21T09:49:09.299Z,14.50
2018-12-21T09:51:40.844Z,14.50
2018-12-21T09:54:12.928Z,14.50
2018-12-21T09:56:44.151Z,14.50
2018-12-21T09:59:15.704Z,14.50
2018-12-21T10:01:47.014Z,14.50
2018-12-21T10:04:18.344Z,14.50
2018-12-21T10:06:49.451Z,14.50
2018-12-21T10:09:21.362Z,14.50
2018-12-21T10:11:52.686Z,14.60
2018-12-21T10:14:23.769Z,14.60
2018-12-21T10:16:55.068Z,14.60
2018-12-21T10:19:26.367Z,14.60
2018-12-21T10:21:58.766Z,14.60
2018-12-21T10:24:30.090Z,14.60
2018-12-21T10:27:01.262Z,14.60
2018-12-21T10:29:32.853Z,14.60
2018-12-21T10:32:04.217Z,14.70
2018-12-21T10:34:35.403Z,14.60
2018-12-21T10:37:06.343Z,14.60
2018-12-21T10:39:37.678Z,14.60
2018-12-21T10:42:08.720Z,14.60
2018-12-21T10:44:39.921Z,14.70
2018-12-21T10:47:11.194Z,14.70
2018-12-21T10:49:42.352Z,14.70
2018-12-21T10:52:13.753Z,14.70
2018-12-21T10:54:45.063Z,14.70
2018-12-21T10:57:16.174Z,14.70
2018-12-21T10:59:47.391Z,14.70
2018-12-21T11:02:18.739Z,14.70
2018-12-21T11:04:49.745Z,14.70
2018-12-21T11:07:20.951Z,14.70
2018-12-21T11:09:54.031Z,14.70
2018-12-21T11:12:25.246Z,14.70
2018-12-21T11:14:56.343Z,14.70
2018-12-21T11:17:27.916Z,14.70
2018-12-21T11:19:59.203Z,14.70
2018-12-21T11:22:30.349Z,14.70
2018-12-21T11:25:01.570Z,14.70
2018-12-21T11:27:32.736Z,14.80
2018-12-21T11:30:04.117Z,14.70
2018-12-21T11:32:35.253Z,14.80
2018-12-21T11:35:06.555Z,14.80
2018-12-21T11:37:37.676Z,14.80
2018-12-21T11:40:08.748Z,14.80
2018-12-21T11:42:39.835Z,14.80
2018-12-21T11:45:11.299Z,14.80
2018-12-21T11:47:42.472Z,14.80
2018-12-21T11:50:13.713Z,14.90
2018-12-21T11:52:44.896Z,14.80
2018-12-21T11:55:15.973Z,14.90
2018-12-21T11:57:47.144Z,14.80
2018-12-21T12:00:18.303Z,14.90
2018-12-21T12:02:49.389Z,14.90
2018-12-21T12:05:20.452Z,14.90
2018-12-21T12:07:51.567Z,14.90
2018-12-21T12:10:22.644Z,14.90
2018-12-21T12:12:53.754Z,14.90
2018-12-21T12:15:25.016Z,15.00
2018-12-21T12:17:56.123Z,15.00
2018-12-21T12:20:27.313Z,15.00
2018-12-21T12:22:58.405Z,15.00
2018-12-21T12:25:29.488Z,15.00
2018-12-21T12:28:00.581Z,15.00
2018-12-21T12:30:31.759Z,15.00
2018-12-21T12:33:02.880Z,15.10
2018-12-21T12:35:33.939Z,15.10
2018-12-21T12:38:05.031Z,15.10
2018-12-21T12:40:36.156Z,15.10
2018-12-21T12:43:07.348Z,15.10
2018-12-21T12:45:38.463Z,15.10
2018-12-21T12:48:09.451Z,15.10
2018-12-21T12:50:40.544Z,15.20
2018-12-21T12:53:11.633Z,15.20
2018-12-21T12:55:42.812Z,15.20
2018-12-21T12:58:13.905Z,15.20
2018-12-21T13:00:44.975Z,15.30
2018-12-21T13:03:15.958Z,15.20
2018-12-21T13:05:47.028Z,15.30
2018-12-21T13:08:18.137Z,15.30
2018-12-21T13:10:49.296Z,15.30
2018-12-21T13:13:20.434Z,15.30
2018-12-21T13:15:51.505Z,15.30
2018-12-21T13:18:22.607Z,15.30
2018-12-21T13:20:53.734Z,15.30
2018-12-21T13:23:24.804Z,15.30
2018-12-21T13:25:55.948Z,15.30
2018-12-21T13:28:27.039Z,15.30
2018-12-21T13:30:58.006Z,15.30
2018-12-21T13:33:29.116Z,15.30
2018-12-21T13:36:00.288Z,15.30
2018-12-21T13:38:31.473Z,15.30
2018-12-21T13:41:02.528Z,15.40
2018-12-21T13:43:33.617Z,15.40
2018-12-21T13:46:04.677Z,15.40
2018-12-21T13:48:35.799Z,15.40
2018-12-21T13:51:06.855Z,15.40
2018-12-21T13:53:38.099Z,15.40
2018-12-21T13:56:09.164Z,15.40
2018-12-21T13:58:40.259Z,15.50
2018-12-21T14:01:11.368Z,15.50
2018-12-21T14:03:42.589Z,15.50
2018-12-21T14:06:14.569Z,15.50
2018-12-21T14:08:45.585Z,15.50
2018-12-21T14:11:16.647Z,15.50
2018-12-21T14:13:47.768Z,15.60
2018-12-21T14:16:19.335Z,15.60
2018-12-21T14:18:50.589Z,15.60
2018-12-21T14:21:21.652Z,15.60
2018-12-21T14:23:52.845Z,15.60
2018-12-21T14:26:24.008Z,15.60
2018-12-21T14:28:55.125Z,15.60
2018-12-21T14:31:26.191Z,15.60
2018-12-21T14:33:57.397Z,15.60
2018-12-21T14:36:28.461Z,15.70
2018-12-21T14:38:59.591Z,15.70
2018-12-21T14:41:30.644Z,15.70
2018-12-21T14:44:01.971Z,15.70
2018-12-21T14:46:33.050Z,15.70
2018-12-21T14:49:04.296Z,15.70
2018-12-21T14:51:35.556Z,15.70
2018-12-21T14:54:06.674Z,15.70
2018-12-21T14:56:37.839Z,15.80
2018-12-21T14:59:08.935Z,15.80
2018-12-21T15:01:40.000Z,15.70
2018-12-21T15:04:11.251Z,15.70
2018-12-21T15:06:42.429Z,15.70
2018-12-21T15:09:14.150Z,15.70
2018-12-21T15:11:45.229Z,15.80
2018-12-21T15:14:16.393Z,15.80
2018-12-21T15:16:47.508Z,15.80
2018-12-21T15:19:18.635Z,15.80
2018-12-21T15:21:49.796Z,15.70
2018-12-21T15:24:21.949Z,15.70
2018-12-21T15:26:53.111Z,15.70
2018-12-21T15:29:24.184Z,15.70
2018-12-21T15:31:55.239Z,15.70
2018-12-21T15:34:26.350Z,15.70
2018-12-21T15:36:57.431Z,15.70
2018-12-21T15:39:28.526Z,15.50
2018-12-21T15:41:59.479Z,15.60
2018-12-21T15:44:30.568Z,15.60
2018-12-21T15:47:08.987Z,15.70
2018-12-21T15:49:34.701Z,15.70
2018-12-21T15:52:05.791Z,15.80
2018-12-21T15:54:36.893Z,15.80
2018-12-21T15:57:08.021Z,15.80
2018-12-21T15:59:39.174Z,15.80
2018-12-21T16:02:10.234Z,15.80
2018-12-21T16:04:41.377Z,15.80
2018-12-21T16:07:12.491Z,15.80
2018-12-21T16:09:43.594Z,15.80
2018-12-21T16:12:14.660Z,15.80
2018-12-21T16:14:45.737Z,15.80
2018-12-21T16:17:16.993Z,15.80
2018-12-21T16:19:48.180Z,15.80
2018-12-21T16:22:19.233Z,15.80
2018-12-21T16:24:50.337Z,15.80
2018-12-21T16:27:21.500Z,15.80
2018-12-21T16:29:52.606Z,15.80
2018-12-21T16:32:23.672Z,15.80
2018-12-21T16:34:54.642Z,15.80
2018-12-21T16:37:25.931Z,15.80
2018-12-21T16:39:57.261Z,15.80
2018-12-21T16:42:28.320Z,15.80
2018-12-21T16:44:59.440Z,15.80
2018-12-21T16:47:30.512Z,15.80
2018-12-21T16:50:01.603Z,15.80
2018-12-21T16:52:32.773Z,15.90
2018-12-21T16:55:03.872Z,15.90
2018-12-21T16:57:34.964Z,15.90
2018-12-21T17:00:11.760Z,15.90
2018-12-21T17:02:42.933Z,15.90
2018-12-21T17:05:14.016Z,15.90
2018-12-21T17:07:50.327Z,15.90
2018-12-21T17:10:26.500Z,15.90
2018-12-21T17:13:02.796Z,15.90
2018-12-21T17:15:38.959Z,15.90
2018-12-21T17:18:10.079Z,15.90
2018-12-21T17:20:41.144Z,16.00
2018-12-21T17:23:12.224Z,16.00
2018-12-21T17:25:43.300Z,16.00
2018-12-21T17:28:14.405Z,16.00
2018-12-21T17:30:45.458Z,16.00
2018-12-21T17:33:16.528Z,16.00
2018-12-21T17:35:47.480Z,16.00
2018-12-21T17:38:18.560Z,16.00
2018-12-21T17:40:49.521Z,16.10
2018-12-21T17:43:20.598Z,16.10
2018-12-21T17:45:51.631Z,16.10
2018-12-21T17:48:22.722Z,16.10
2018-12-21T17:50:53.788Z,16.10
2018-12-21T17:53:24.998Z,16.10
2018-12-21T17:55:56.053Z,16.20
2018-12-21T17:58:27.184Z,16.20
2018-12-21T18:00:58.240Z,16.20
2018-12-21T18:03:59.777Z,16.20
2018-12-21T18:06:30.832Z,16.20
2018-12-21T18:09:01.907Z,16.30
2018-12-21T18:11:34.042Z,16.30
2018-12-21T18:14:05.144Z,16.30
2018-12-21T18:16:36.208Z,16.30
2018-12-21T18:19:07.320Z,16.30
2018-12-21T18:21:50.843Z,16.30
2018-12-21T18:24:23.080Z,16.30
2018-12-21T18:26:54.148Z,16.40
2018-12-21T18:29:25.677Z,16.40
2018-12-21T18:32:05.303Z,16.40
2018-12-21T18:34:38.522Z,16.40
2018-12-21T18:37:10.842Z,16.40
2018-12-21T18:39:41.915Z,16.40
2018-12-21T18:42:13.023Z,16.40
2018-12-21T18:44:44.124Z,16.40
2018-12-21T18:47:15.236Z,16.40
2018-12-21T18:49:46.336Z,16.50
2018-12-21T18:52:18.901Z,16.50
2018-12-21T18:54:50.100Z,16.50
2018-12-21T18:57:21.832Z,16.50
2018-12-21T18:59:53.012Z,16.50
2018-12-21T19:02:24.084Z,16.50
2018-12-21T19:04:55.231Z,16.50
2018-12-21T19:07:26.404Z,16.50
2018-12-21T19:09:59.399Z,16.50
2018-12-21T19:12:30.596Z,16.50
2018-12-21T19:15:01.872Z,16.50
2018-12-21T19:17:33.063Z,16.50
2018-12-21T19:20:06.059Z,16.50
2018-12-21T19:22:37.275Z,16.50
2018-12-21T19:25:10.800Z,16.50
2018-12-21T19:27:41.759Z,16.50
2018-12-21T19:30:13.235Z,16.60
2018-12-21T19:32:44.507Z,16.60
2018-12-21T19:35:16.183Z,16.60
2018-12-21T19:37:47.275Z,16.60
2018-12-21T19:40:18.412Z,16.60
2018-12-21T19:42:49.637Z,16.60
2018-12-21T19:45:20.729Z,16.60
2018-12-21T19:47:51.962Z,16.60
2018-12-21T19:50:23.048Z,16.60
2018-12-21T19:52:54.148Z,16.60
2018-12-21T19:55:53.937Z,16.60
2018-12-21T19:58:25.008Z,16.60
2018-12-21T20:00:56.199Z,16.60
2018-12-21T20:03:27.313Z,16.60
2018-12-21T20:05:58.407Z,16.60
2018-12-21T20:08:29.619Z,16.60
2018-12-21T20:11:00.697Z,16.60
2018-12-21T20:13:32.012Z,16.60
2018-12-21T20:16:03.103Z,16.60
2018-12-21T20:18:34.187Z,16.60
2018-12-21T20:21:05.281Z,16.60
2018-12-21T20:23:36.339Z,16.70
2018-12-21T20:26:07.427Z,16.60
2018-12-21T20:28:38.492Z,16.60
2018-12-21T20:31:09.584Z,16.60
2018-12-21T20:33:40.753Z,16.60
2018-12-21T20:36:11.977Z,16.60
2018-12-21T20:38:43.109Z,16.60
2018-12-21T20:41:14.196Z,16.60
2018-12-21T20:43:45.256Z,16.60
2018-12-21T20:46:16.355Z,16.60
2018-12-21T20:48:47.429Z,16.60
2018-12-21T20:51:18.520Z,16.60
2018-12-21T20:53:49.590Z,16.60
2018-12-21T20:56:20.680Z,16.60
2018-12-21T20:58:57.952Z,16.60
2018-12-21T21:01:36.854Z,16.60
2018-12-21T21:04:07.926Z,16.60
2018-12-21T21:06:39.104Z,16.60
2018-12-21T21:09:12.682Z,16.60
2018-12-21T21:11:43.775Z,16.60
2018-12-21T21:14:17.099Z,16.60
2018-12-21T21:16:48.180Z,16.60
2018-12-21T21:19:19.277Z,16.60
2018-12-21T21:21:50.323Z,16.60
2018-12-21T21:24:21.389Z,16.60
2018-12-21T21:26:52.477Z,16.60
2018-12-21T21:29:23.537Z,16.60
2018-12-21T21:31:54.653Z,16.60
2018-12-21T21:34:25.807Z,16.60
2018-12-21T21:36:56.904Z,16.60
2018-12-21T21:39:27.976Z,16.60
2018-12-21T21:41:59.055Z,16.60
2018-12-21T21:44:30.214Z,16.60
2018-12-21T21:47:01.298Z,16.60
2018-12-21T21:49:32.350Z,16.60
2018-12-21T21:52:03.477Z,16.60
2018-12-21T21:54:34.597Z,16.60
2018-12-21T21:57:05.697Z,16.60
2018-12-21T21:59:36.753Z,16.60
2018-12-21T22:02:07.483Z,16.60
2018-12-21T22:04:38.420Z,16.70
2018-12-21T22:07:09.505Z,16.70
2018-12-21T22:09:40.858Z,16.60
2018-12-21T22:12:11.839Z,16.70
2018-12-21T22:14:42.896Z,16.60
2018-12-21T22:17:13.975Z,16.70
2018-12-21T22:19:45.066Z,16.70
2018-12-21T22:22:16.159Z,16.70
2018-12-21T22:24:47.228Z,16.70
2018-12-21T22:27:18.310Z,16.70
2018-12-21T22:29:49.369Z,16.70
2018-12-21T22:32:20.453Z,16.70
2018-12-21T22:34:51.532Z,16.70
2018-12-21T22:37:22.614Z,16.70
2018-12-21T22:39:53.672Z,16.70
2018-12-21T22:42:24.761Z,16.70
2018-12-21T22:44:55.737Z,16.70
2018-12-21T22:47:26.712Z,16.70
2018-12-21T22:49:58.204Z,16.70
2018-12-21T22:52:29.298Z,16.70
2018-12-21T22:55:00.420Z,16.80
2018-12-21T22:57:31.513Z,16.70
2018-12-21T23:00:02.457Z,16.80
2018-12-21T23:02:35.029Z,16.80
2018-12-21T23:05:06.278Z,16.80
2018-12-21T23:07:37.352Z,16.80
2018-12-21T23:10:08.783Z,16.80
2018-12-21T23:12:39.882Z,16.80
2018-12-21T23:15:10.833Z,16.80
2018-12-21T23:17:41.930Z,16.80
2018-12-21T23:20:13.021Z,16.80
2018-12-21T23:22:44.112Z,16.80
2018-12-21T23:25:15.185Z,16.80
2018-12-21T23:27:46.289Z,16.80
2018-12-21T23:30:17.361Z,16.80
2018-12-21T23:32:48.456Z,16.80
2018-12-21T23:35:19.528Z,16.80
2018-12-21T23:37:50.620Z,16.80
2018-12-21T23:40:21.688Z,16.80
2018-12-21T23:42:52.789Z,16.80
2018-12-21T23:45:23.848Z,16.80
2018-12-21T23:47:54.922Z,16.80
2018-12-21T23:50:26.009Z,16.80
2018-12-21T23:52:57.182Z,16.80
2018-12-21T23:55:28.240Z,16.80
2018-12-21T23:57:59.340Z,16.80
